createdAt,value
2023-05-15T00:02:19.854Z,3.67
2023-05-15T00:04:46.805Z,4.00
2023-05-15T00:07:13.884Z,3.58
2023-05-15T00:09:40.761Z,3.65
2023-05-15T00:12:07.927Z,3.70
2023-05-15T00:14:34.657Z,3.05
2023-05-15T00:17:01.473Z,3.10
2023-05-15T00:19:28.833Z,4.25
2023-05-15T00:21:55.667Z,3.05
2023-05-15T00:24:22.657Z,2.97
2023-05-15T00:26:49.503Z,3.08
2023-05-15T00:29:16.353Z,3.28
2023-05-15T00:31:43.139Z,6.05
2023-05-15T00:34:09.991Z,4.43
2023-05-15T00:36:36.841Z,3.58
2023-05-15T00:39:03.769Z,3.60
2023-05-15T00:41:32.593Z,3.58
2023-05-15T00:44:02.172Z,3.22
2023-05-15T00:46:32.026Z,3.00
2023-05-15T00:48:59.008Z,3.60
2023-05-15T00:51:27.218Z,3.15
2023-05-15T00:53:56.861Z,4.20
2023-05-15T00:56:24.966Z,2.92
2023-05-15T00:58:54.052Z,3.97
2023-05-15T01:01:21.831Z,3.35
2023-05-15T01:03:48.742Z,4.07
2023-05-15T01:06:15.756Z,3.22
2023-05-15T01:08:45.993Z,2.90
2023-05-15T01:11:14.442Z,2.97
2023-05-15T01:13:41.404Z,4.43
2023-05-15T01:16:09.077Z,4.20
2023-05-15T01:18:36.698Z,2.83
2023-05-15T01:21:17.871Z,2.90
2023-05-15T01:23:59.623Z,3.03
2023-05-15T01:26:29.134Z,3.55
2023-05-15T01:29:03.586Z,3.35
2023-05-15T01:31:34.052Z,3.42
2023-05-15T01:34:06.606Z,3.85
2023-05-15T01:36:38.985Z,6.88
2023-05-15T01:39:26.209Z,3.17
2023-05-15T01:41:58.765Z,3.67
2023-05-15T01:44:30.401Z,3.47
2023-05-15T01:47:08.757Z,3.05
2023-05-15T01:49:36.679Z,3.60
2023-05-15T01:52:10.110Z,3.28
2023-05-15T01:54:37.395Z,3.50
2023-05-15T01:57:06.560Z,2.88
2023-05-15T01:59:34.586Z,3.10
2023-05-15T02:02:04.643Z,2.90
2023-05-15T02:04:33.072Z,3.50
2023-05-15T02:07:01.438Z,4.22
2023-05-15T02:09:28.841Z,4.63
2023-05-15T02:11:56.872Z,3.30
2023-05-15T02:14:26.457Z,2.83
2023-05-15T02:16:53.384Z,2.97
2023-05-15T02:19:20.552Z,3.70
2023-05-15T02:21:47.566Z,3.08
2023-05-15T02:24:14.265Z,4.03
2023-05-15T02:27:02.867Z,3.28
2023-05-15T02:29:47.591Z,3.08
2023-05-15T02:32:19.744Z,3.35
2023-05-15T02:35:01.554Z,3.63
2023-05-15T02:37:34.222Z,2.88
2023-05-15T02:40:01.809Z,3.50
2023-05-15T02:42:29.860Z,4.00
2023-05-15T02:44:58.068Z,4.20
2023-05-15T02:47:26.003Z,3.60
2023-05-15T03:33:08.693Z,5.88
2023-05-15T03:35:36.087Z,4.20
2023-05-15T03:38:02.887Z,3.83
2023-05-15T03:40:29.625Z,5.25
2023-05-15T03:42:56.485Z,3.65
2023-05-15T03:45:23.683Z,4.13
2023-05-15T03:47:51.060Z,5.63
2023-05-15T03:50:17.938Z,3.90
2023-05-15T03:52:44.852Z,3.78
2023-05-15T03:55:11.932Z,4.30
2023-05-15T03:57:38.738Z,6.30
2023-05-15T04:00:10.053Z,5.13
2023-05-15T04:02:37.593Z,5.15
2023-05-15T04:05:05.307Z,5.45
2023-05-15T04:07:34.269Z,3.80
2023-05-15T04:10:01.688Z,3.53
2023-05-15T04:12:35.876Z,4.30
2023-05-15T04:15:17.124Z,4.65
2023-05-15T04:17:45.787Z,3.70
2023-05-15T04:20:15.332Z,3.97
2023-05-15T04:22:43.126Z,4.28
2023-05-15T04:25:11.339Z,3.67
2023-05-15T04:27:38.598Z,3.60
2023-05-15T04:30:07.569Z,3.80
2023-05-15T04:32:35.958Z,4.63
2023-05-15T04:35:10.139Z,5.15
2023-05-15T04:37:37.821Z,3.58
2023-05-15T04:40:06.763Z,4.28
2023-05-15T04:42:33.880Z,4.00
2023-05-15T04:45:00.808Z,4.25
2023-05-15T04:47:27.769Z,4.13
2023-05-15T04:49:54.666Z,4.57
2023-05-15T04:52:21.453Z,4.05
2023-05-15T04:54:50.960Z,6.22
2023-05-15T04:57:17.817Z,9.35
2023-05-15T04:59:44.575Z,11.75
2023-05-15T05:02:11.442Z,4.32
2023-05-15T05:04:38.385Z,8.32
2023-05-15T05:07:05.891Z,7.80
2023-05-15T05:09:32.654Z,5.35
2023-05-15T05:12:02.954Z,6.97
2023-05-15T05:14:29.739Z,4.40
2023-05-15T05:16:56.555Z,12.40
2023-05-15T05:19:23.389Z,3.45
2023-05-15T05:21:50.098Z,7.63
2023-05-15T05:24:16.933Z,4.65
2023-05-15T05:26:45.054Z,4.43
2023-05-15T05:29:12.149Z,5.93
2023-05-15T05:31:38.931Z,4.28
2023-05-15T05:34:06.566Z,6.20
2023-05-15T05:36:33.308Z,4.20
2023-05-15T05:39:00.041Z,4.25
2023-05-15T05:41:26.842Z,4.50
2023-05-15T05:43:53.576Z,4.55
2023-05-15T05:46:21.023Z,4.65
2023-05-15T05:48:47.938Z,4.47
2023-05-15T05:51:15.481Z,4.80
2023-05-15T05:53:42.300Z,6.40
2023-05-15T05:56:09.183Z,5.32
2023-05-15T05:58:36.331Z,7.18
2023-05-15T06:01:03.542Z,6.32
2023-05-15T06:03:31.022Z,8.55
2023-05-15T06:05:57.787Z,11.32
2023-05-15T06:08:24.641Z,9.13
2023-05-15T06:10:51.743Z,12.45
2023-05-15T06:13:18.903Z,13.18
2023-05-15T06:15:46.429Z,16.45
2023-05-15T06:18:13.668Z,14.23
2023-05-15T06:20:42.698Z,14.85
2023-05-15T06:23:09.794Z,14.77
2023-05-15T06:25:36.814Z,18.38
2023-05-15T06:28:03.630Z,14.32
2023-05-15T06:30:30.346Z,16.85
2023-05-15T06:32:57.308Z,22.17
2023-05-15T06:35:24.288Z,19.02
2023-05-15T06:37:52.026Z,16.45
2023-05-15T06:40:19.260Z,19.75
2023-05-15T06:42:47.205Z,19.38
2023-05-15T06:45:13.992Z,18.27
2023-05-15T06:47:40.797Z,18.83
2023-05-15T06:50:09.681Z,19.60
2023-05-15T06:52:36.567Z,16.20
2023-05-15T06:55:03.447Z,16.02
2023-05-15T06:57:30.159Z,19.65
2023-05-15T06:59:56.996Z,19.15
2023-05-15T07:02:23.894Z,18.70
2023-05-15T07:04:51.568Z,17.70
2023-05-15T07:07:18.491Z,21.45
2023-05-15T07:09:48.387Z,18.70
2023-05-15T07:12:15.753Z,24.45
2023-05-15T07:14:42.592Z,20.77
2023-05-15T07:17:09.747Z,18.92
2023-05-15T07:19:36.747Z,19.33
2023-05-15T07:22:03.787Z,22.27
2023-05-15T07:24:31.186Z,20.73
2023-05-15T07:26:59.449Z,20.55
2023-05-15T07:29:26.713Z,17.33
2023-05-15T07:31:53.768Z,16.90
2023-05-15T07:38:04.479Z,19.55
2023-05-15T07:40:31.673Z,15.23
2023-05-15T07:43:03.891Z,15.57
2023-05-15T07:45:31.402Z,14.38
2023-05-15T07:48:18.942Z,14.60
2023-05-15T07:50:47.495Z,17.92
2023-05-15T07:53:17.270Z,15.10
2023-05-15T07:58:26.219Z,16.75
2023-05-15T08:33:49.043Z,26.10
2023-05-15T08:36:18.213Z,22.92
2023-05-15T08:38:45.559Z,26.08
2023-05-15T08:41:38.621Z,20.85
2023-05-15T08:44:09.650Z,20.48
2023-05-15T08:47:15.013Z,22.48
2023-05-15T08:49:47.657Z,19.63
2023-05-15T08:52:16.269Z,26.58
2023-05-15T08:54:43.550Z,24.33
2023-05-15T08:57:11.256Z,26.08
2023-05-15T08:59:38.428Z,25.67
2023-05-15T09:02:05.623Z,25.90
2023-05-15T09:04:32.631Z,24.13
2023-05-15T09:07:01.728Z,26.95
2023-05-15T09:09:30.775Z,24.05
2023-05-15T09:11:59.478Z,23.48
2023-05-15T09:14:26.217Z,26.05
2023-05-15T09:16:53.626Z,24.20
2023-05-15T09:19:23.975Z,23.63
2023-05-15T09:21:50.827Z,23.40
2023-05-15T09:24:25.009Z,24.13
2023-05-15T09:27:03.045Z,24.00
2023-05-15T09:29:31.081Z,22.67
2023-05-15T09:32:02.588Z,21.70
2023-05-15T09:34:34.922Z,22.85
2023-05-15T09:37:04.215Z,22.02
2023-05-15T09:39:31.143Z,26.38
2023-05-15T09:42:11.898Z,23.40
2023-05-15T09:44:43.594Z,23.40
2023-05-15T09:47:12.113Z,22.30
2023-05-15T09:49:39.458Z,19.73
2023-05-15T09:52:10.731Z,25.42
2023-05-15T09:54:38.272Z,21.52
2023-05-15T09:57:09.707Z,23.92
2023-05-15T09:59:36.608Z,20.98
2023-05-15T10:02:03.485Z,21.30
2023-05-15T10:04:35.924Z,22.73
2023-05-15T10:07:02.748Z,22.25
2023-05-15T10:09:32.977Z,19.02
2023-05-15T10:11:59.962Z,18.10
2023-05-15T10:14:29.095Z,23.42
2023-05-15T10:16:57.487Z,18.70
2023-05-15T10:19:27.786Z,20.08
2023-05-15T10:21:57.103Z,17.08
2023-05-15T10:24:25.688Z,18.10
2023-05-15T10:26:55.507Z,16.80
2023-05-15T10:29:25.358Z,17.70
2023-05-15T10:31:53.666Z,17.77
2023-05-15T10:34:20.979Z,17.85
2023-05-15T10:36:50.258Z,16.10
2023-05-15T10:39:18.162Z,14.88
2023-05-15T10:41:45.811Z,18.25
2023-05-15T10:44:15.652Z,16.27
2023-05-15T10:46:43.226Z,15.15
2023-05-15T10:49:10.375Z,19.33
2023-05-15T10:51:39.481Z,16.25
2023-05-15T10:54:06.542Z,18.05
2023-05-15T10:56:34.810Z,14.25
2023-05-15T10:59:10.298Z,12.98
2023-05-15T11:01:41.292Z,14.98
2023-05-15T11:04:19.268Z,17.20
2023-05-15T11:06:49.002Z,18.52
2023-05-15T11:09:22.073Z,16.23
2023-05-15T11:11:51.964Z,16.20
2023-05-15T11:14:20.657Z,15.07
2023-05-15T11:16:53.993Z,14.10
2023-05-15T11:19:48.891Z,14.77
2023-05-15T11:22:15.825Z,14.40
2023-05-15T11:25:01.943Z,13.35
2023-05-15T11:27:31.867Z,14.15
2023-05-15T11:30:22.220Z,12.65
2023-05-15T11:33:16.536Z,11.45
2023-05-15T11:35:57.268Z,8.00
2023-05-15T11:38:25.445Z,8.90
2023-05-15T11:40:58.726Z,8.05
2023-05-15T11:43:30.527Z,8.90
2023-05-15T11:46:00.002Z,8.98
2023-05-15T11:48:35.214Z,9.43
2023-05-15T11:51:03.061Z,8.80
2023-05-15T11:53:30.463Z,10.13
2023-05-15T11:55:57.376Z,8.07
2023-05-15T11:58:25.882Z,7.68
2023-05-15T12:00:53.925Z,6.22
2023-05-15T12:03:26.111Z,7.72
2023-05-15T12:05:59.597Z,8.32
2023-05-15T12:08:35.078Z,6.90
2023-05-15T12:11:02.958Z,7.07
2023-05-15T12:13:31.162Z,6.43
2023-05-15T12:15:58.723Z,5.88
2023-05-15T12:18:26.115Z,6.20
2023-05-15T12:20:53.806Z,6.55
2023-05-15T12:23:25.602Z,6.20
2023-05-15T12:25:58.283Z,4.78
2023-05-15T12:28:26.655Z,6.95
2023-05-15T12:30:54.248Z,5.78
2023-05-15T12:33:21.521Z,5.75
2023-05-15T12:35:54.953Z,5.07
2023-05-15T12:38:24.862Z,6.93
2023-05-15T12:40:57.407Z,5.07
2023-05-15T12:43:25.719Z,7.60
2023-05-15T12:45:54.028Z,5.97
2023-05-15T12:48:21.845Z,5.70
2023-05-15T12:50:49.866Z,5.45
2023-05-15T12:53:17.178Z,6.68
2023-05-15T12:55:46.446Z,4.47
2023-05-15T12:58:15.774Z,5.07
2023-05-15T13:04:52.339Z,5.25
2023-05-15T13:07:19.491Z,5.70
2023-05-15T13:10:01.657Z,5.30
2023-05-15T13:12:46.612Z,7.10
2023-05-15T13:15:40.517Z,4.50
2023-05-15T13:18:09.056Z,6.63
2023-05-15T13:20:44.399Z,5.20
2023-05-15T13:23:13.483Z,5.32
2023-05-15T13:25:40.744Z,5.47
2023-05-15T13:28:08.759Z,5.45
2023-05-15T13:30:35.888Z,6.03
2023-05-15T13:33:03.036Z,6.32
2023-05-15T13:35:30.380Z,6.53
2023-05-15T13:37:57.715Z,7.32
2023-05-15T13:40:24.748Z,5.60
2023-05-15T13:42:51.609Z,6.28
2023-05-15T13:45:19.304Z,5.53
2023-05-15T13:47:46.196Z,5.32
2023-05-15T13:50:14.723Z,5.63
2023-05-15T13:52:43.784Z,5.15
2023-05-15T13:55:11.171Z,5.75
2023-05-15T13:57:41.034Z,6.47
2023-05-15T14:00:13.159Z,6.60
2023-05-15T14:02:41.701Z,7.70
2023-05-15T14:08:29.703Z,5.32
2023-05-15T14:10:56.766Z,5.97
2023-05-15T14:13:24.339Z,4.78
2023-05-15T14:15:52.394Z,4.60
2023-05-15T14:18:19.437Z,7.45
2023-05-15T14:20:46.256Z,6.03
2023-05-15T14:23:13.792Z,6.00
2023-05-15T14:25:41.481Z,5.97
2023-05-15T14:28:08.234Z,8.50
2023-05-15T14:30:34.991Z,7.43
2023-05-15T14:33:01.855Z,7.30
2023-05-15T14:35:28.629Z,6.75
2023-05-15T14:37:55.455Z,5.28
2023-05-15T14:40:22.906Z,4.72
2023-05-15T14:42:49.844Z,5.68
2023-05-15T14:45:16.611Z,9.25
2023-05-15T14:47:43.582Z,5.03
2023-05-15T14:50:11.035Z,8.48
2023-05-15T14:52:37.966Z,5.15
2023-05-15T14:55:09.709Z,5.30
2023-05-15T14:57:37.643Z,9.35
2023-05-15T15:00:09.435Z,5.13
2023-05-15T15:02:37.036Z,11.68
2023-05-15T15:05:04.522Z,5.53
2023-05-15T15:07:31.780Z,6.88
2023-05-15T15:09:58.623Z,4.53
2023-05-15T15:12:26.303Z,7.53
2023-05-15T15:14:53.552Z,6.78
2023-05-15T15:17:20.693Z,4.65
2023-05-15T15:19:48.107Z,5.88
2023-05-15T15:22:15.128Z,5.20
2023-05-15T15:24:41.908Z,7.15
2023-05-15T15:27:08.707Z,6.28
2023-05-15T15:29:35.624Z,9.45
2023-05-15T15:32:02.697Z,8.05
2023-05-15T15:34:29.578Z,5.93
2023-05-15T15:36:56.658Z,5.25
2023-05-15T15:39:23.567Z,7.10
2023-05-15T15:41:50.262Z,10.50
2023-05-15T15:44:17.129Z,5.57
2023-05-15T15:46:44.059Z,5.30
2023-05-15T15:49:10.865Z,5.82
2023-05-15T15:51:37.679Z,9.68
2023-05-15T15:54:04.441Z,15.35
2023-05-15T15:56:31.162Z,6.25
2023-05-15T15:58:58.102Z,5.28
2023-05-15T16:01:24.965Z,5.78
2023-05-15T16:03:51.954Z,5.88
2023-05-15T16:06:18.882Z,8.73
2023-05-15T16:08:45.706Z,7.60
2023-05-15T16:11:12.566Z,6.88
2023-05-15T16:13:40.940Z,7.20
2023-05-15T16:16:08.017Z,5.93
2023-05-15T16:18:35.394Z,6.18
2023-05-15T16:21:02.410Z,6.22
2023-05-15T16:23:32.763Z,6.53
2023-05-15T16:25:59.653Z,10.88
2023-05-15T16:28:26.463Z,8.63
2023-05-15T16:30:53.388Z,7.15
2023-05-15T16:33:20.734Z,6.82
2023-05-15T16:35:47.791Z,6.03
2023-05-15T16:38:15.646Z,6.10
2023-05-15T16:40:42.493Z,6.00
2023-05-15T16:43:09.452Z,6.00
2023-05-15T16:45:36.345Z,6.28
2023-05-15T16:48:03.348Z,8.13
2023-05-15T16:50:31.929Z,6.45
2023-05-15T16:52:59.069Z,8.00
2023-05-15T16:55:26.515Z,6.22
2023-05-15T16:57:53.694Z,9.10
2023-05-15T17:00:21.035Z,6.93
2023-05-15T17:02:49.251Z,7.07
2023-05-15T17:05:16.523Z,7.40
2023-05-15T17:07:44.684Z,7.85
2023-05-15T17:10:12.364Z,6.50
2023-05-15T17:12:39.411Z,6.80
2023-05-15T17:15:06.964Z,7.05
2023-05-15T17:17:33.941Z,10.10
2023-05-15T17:20:02.622Z,8.43
2023-05-15T17:22:30.021Z,6.50
2023-05-15T17:24:56.770Z,7.00
2023-05-15T17:27:23.656Z,6.85
2023-05-15T17:29:50.515Z,6.82
2023-05-15T17:32:17.870Z,5.97
2023-05-15T17:34:45.549Z,6.93
2023-05-15T17:37:12.844Z,6.20
2023-05-15T17:39:39.694Z,5.80
2023-05-15T17:42:06.501Z,5.57
2023-05-15T17:44:33.478Z,8.25
2023-05-15T17:47:00.580Z,6.53
2023-05-15T17:49:28.488Z,7.03
2023-05-15T17:51:55.487Z,5.38
2023-05-15T17:54:22.366Z,5.22
2023-05-15T17:56:49.212Z,5.55
2023-05-15T17:59:16.294Z,7.07
2023-05-15T18:01:43.117Z,6.70
2023-05-15T18:04:10.373Z,7.25
2023-05-15T18:06:37.661Z,9.23
2023-05-15T18:09:05.314Z,5.72
2023-05-15T18:11:32.449Z,5.07
2023-05-15T18:13:59.483Z,5.45
2023-05-15T18:16:26.559Z,6.05
2023-05-15T18:18:53.810Z,7.30
2023-05-15T18:21:20.767Z,5.40
2023-05-15T18:23:47.586Z,5.05
2023-05-15T18:26:14.626Z,5.50
2023-05-15T18:28:41.624Z,11.02
2023-05-15T18:31:08.426Z,5.07
2023-05-15T18:33:35.504Z,7.57
2023-05-15T18:36:02.265Z,5.20
2023-05-15T18:38:29.209Z,5.75
2023-05-15T18:40:55.974Z,6.13
2023-05-15T18:43:22.842Z,5.90
2023-05-15T18:45:49.605Z,5.88
2023-05-15T18:48:16.370Z,8.80
2023-05-15T18:50:43.327Z,5.80
2023-05-15T18:53:10.240Z,5.53
2023-05-15T18:55:38.925Z,5.95
2023-05-15T18:58:06.105Z,6.07
2023-05-15T19:00:38.436Z,5.63
2023-05-15T19:03:06.613Z,6.45
2023-05-15T19:05:34.282Z,8.40
2023-05-15T19:08:02.033Z,6.32
2023-05-15T19:10:29.753Z,6.10
2023-05-15T19:12:57.376Z,5.60
2023-05-15T19:15:24.982Z,5.30
2023-05-15T19:17:52.395Z,8.05
2023-05-15T19:20:19.719Z,9.15
2023-05-15T19:22:46.660Z,7.55
2023-05-15T19:25:13.779Z,6.10
2023-05-15T19:27:41.276Z,6.28
2023-05-15T19:30:09.922Z,5.88
2023-05-15T19:32:37.494Z,5.90
2023-05-15T19:35:05.181Z,6.32
2023-05-15T19:37:32.007Z,5.43
2023-05-15T19:39:58.950Z,6.18
2023-05-15T19:42:26.442Z,8.52
2023-05-15T19:44:53.358Z,8.65
2023-05-15T19:47:20.802Z,9.98
2023-05-15T19:49:47.595Z,12.40
2023-05-15T19:52:16.393Z,10.20
2023-05-15T19:54:43.344Z,11.63
2023-05-15T19:57:10.223Z,10.57
2023-05-15T19:59:37.070Z,13.65
2023-05-15T20:02:06.049Z,10.02
2023-05-15T20:04:34.164Z,12.18
2023-05-15T20:07:01.072Z,11.07
2023-05-15T20:09:28.022Z,10.90
2023-05-15T20:11:55.000Z,12.02
2023-05-15T20:14:21.807Z,10.95
2023-05-15T20:16:48.535Z,11.18
2023-05-15T20:19:17.132Z,15.05
2023-05-15T20:21:44.042Z,11.40
2023-05-15T20:24:12.122Z,12.98
2023-05-15T20:26:39.188Z,13.43
2023-05-15T20:29:06.049Z,13.23
2023-05-15T20:31:33.740Z,13.15
2023-05-15T20:34:01.021Z,14.15
2023-05-15T20:36:28.151Z,13.93
2023-05-15T20:38:55.828Z,14.10
2023-05-15T20:41:23.304Z,11.88
2023-05-15T20:43:50.280Z,10.70
2023-05-15T20:46:17.251Z,10.35
2023-05-15T20:48:44.179Z,10.23
2023-05-15T20:51:10.999Z,9.50
2023-05-15T20:53:37.766Z,9.55
2023-05-15T20:56:04.685Z,10.40
2023-05-15T20:58:32.190Z,14.00
2023-05-15T21:01:00.962Z,10.93
2023-05-15T21:03:29.291Z,11.00
2023-05-15T21:05:57.496Z,12.18
2023-05-15T21:08:24.600Z,12.13
2023-05-15T21:49:38.363Z,21.92
2023-05-15T21:52:05.302Z,25.20
2023-05-15T21:54:32.264Z,22.33
2023-05-15T21:56:59.170Z,26.52
2023-05-15T21:59:26.009Z,22.30
2023-05-15T22:01:52.770Z,22.85
2023-05-15T22:04:19.710Z,25.48
2023-05-15T22:06:46.589Z,25.27
2023-05-15T22:09:13.466Z,24.63
2023-05-15T22:11:40.434Z,25.42
2023-05-15T22:14:07.420Z,26.42
2023-05-15T22:16:34.353Z,25.98
2023-05-15T22:19:02.134Z,27.00
2023-05-15T22:21:29.122Z,28.48
2023-05-15T22:23:55.952Z,28.95
2023-05-15T22:26:26.479Z,27.40
2023-05-15T22:28:56.666Z,31.92
2023-05-15T22:31:23.495Z,33.88
2023-05-15T22:33:50.612Z,30.27
2023-05-15T22:36:17.473Z,32.13
2023-05-15T22:38:44.302Z,29.02
2023-05-15T22:41:12.346Z,30.25
2023-05-15T22:43:39.072Z,31.63
2023-05-15T22:46:05.873Z,35.15
2023-05-15T22:48:32.890Z,33.13
2023-05-15T22:50:59.967Z,34.30
2023-05-15T22:53:27.156Z,36.35
2023-05-15T22:55:54.005Z,36.80
2023-05-15T22:58:20.872Z,36.92
2023-05-15T23:00:47.760Z,34.50
2023-05-15T23:03:14.707Z,36.83
2023-05-15T23:05:41.795Z,37.75
2023-05-15T23:08:09.508Z,34.42
2023-05-15T23:10:36.527Z,36.75
2023-05-15T23:13:04.633Z,33.50
2023-05-15T23:15:31.559Z,36.65
2023-05-15T23:17:58.541Z,35.58
2023-05-15T23:20:26.011Z,31.30
2023-05-15T23:22:53.412Z,35.20
2023-05-15T23:25:20.712Z,33.08
2023-05-15T23:27:47.541Z,30.27
2023-05-15T23:30:15.199Z,35.08
2023-05-15T23:32:42.022Z,33.53
2023-05-15T23:35:09.355Z,32.80
2023-05-15T23:37:37.120Z,34.38
2023-05-15T23:40:05.508Z,31.25
2023-05-15T23:42:32.239Z,29.17
2023-05-15T23:44:59.082Z,29.42
2023-05-15T23:47:26.056Z,30.48
2023-05-15T23:49:53.033Z,28.13
2023-05-15T23:52:19.891Z,30.92
2023-05-15T23:54:46.724Z,28.55
2023-05-15T23:57:13.570Z,27.85
2023-05-15T23:59:40.701Z,27.02
